sensor_id;sensor_type;location;lat;lon;timestamp;P1;durP1;ratioP1;P2;durP2;ratioP2
70216;SDS011;65567;55.684;37.570;2023-12-28T00:00:58;4.72;;;2.22;;
70216;SDS011;65567;55.684;37.570;2023-12-28T00:03:24;4.60;;;2.35;;
70216;SDS011;65567;55.684;37.570;2023-12-28T00:05:50;4.05;;;2.25;;
70216;SDS011;65567;55.684;37.570;2023-12-28T00:08:15;4.57;;;2.75;;
70216;SDS011;65567;55.684;37.570;2023-12-28T00:10:42;4.50;;;2.47;;
70216;SDS011;65567;55.684;37.570;2023-12-28T00:13:09;5.22;;;2.30;;
70216;SDS011;65567;55.684;37.570;2023-12-28T00:15:34;4.25;;;2.00;;
70216;SDS011;65567;55.684;37.570;2023-12-28T00:18:00;4.47;;;2.00;;
70216;SDS011;65567;55.684;37.570;2023-12-28T00:20:26;5.32;;;2.40;;
70216;SDS011;65567;55.684;37.570;2023-12-28T00:22:51;3.53;;;1.92;;
70216;SDS011;65567;55.684;37.570;2023-12-28T00:25:17;5.00;;;3.03;;
70216;SDS011;65567;55.684;37.570;2023-12-28T00:27:43;3.35;;;1.83;;
70216;SDS011;65567;55.684;37.570;2023-12-28T00:30:10;4.43;;;2.30;;
70216;SDS011;65567;55.684;37.570;2023-12-28T00:32:39;4.97;;;1.98;;
70216;SDS011;65567;55.684;37.570;2023-12-28T00:35:08;4.70;;;2.00;;
70216;SDS011;65567;55.684;37.570;2023-12-28T00:37:34;3.38;;;1.70;;
70216;SDS011;65567;55.684;37.570;2023-12-28T00:40:00;4.07;;;2.13;;
70216;SDS011;65567;55.684;37.570;2023-12-28T00:42:26;3.58;;;1.80;;
70216;SDS011;65567;55.684;37.570;2023-12-28T00:44:51;3.35;;;2.05;;
70216;SDS011;65567;55.684;37.570;2023-12-28T00:47:18;3.13;;;1.80;;
70216;SDS011;65567;55.684;37.570;2023-12-28T00:49:44;3.80;;;1.65;;
70216;SDS011;65567;55.684;37.570;2023-12-28T00:52:09;3.33;;;1.65;;
70216;SDS011;65567;55.684;37.570;2023-12-28T00:54:38;3.67;;;1.88;;
70216;SDS011;65567;55.684;37.570;2023-12-28T00:57:04;3.35;;;1.75;;
70216;SDS011;65567;55.684;37.570;2023-12-28T00:59:32;3.20;;;1.92;;
70216;SDS011;65567;55.684;37.570;2023-12-28T01:02:01;4.07;;;2.05;;
70216;SDS011;65567;55.684;37.570;2023-12-28T01:04:27;3.63;;;1.63;;
70216;SDS011;65567;55.684;37.570;2023-12-28T01:06:52;3.00;;;1.73;;
70216;SDS011;65567;55.684;37.570;2023-12-28T01:09:18;3.22;;;1.58;;
70216;SDS011;65567;55.684;37.570;2023-12-28T01:11:44;2.72;;;1.67;;
70216;SDS011;65567;55.684;37.570;2023-12-28T01:14:10;3.30;;;1.52;;
70216;SDS011;65567;55.684;37.570;2023-12-28T01:16:35;3.10;;;1.92;;
70216;SDS011;65567;55.684;37.570;2023-12-28T01:19:04;2.53;;;1.48;;
70216;SDS011;65567;55.684;37.570;2023-12-28T01:21:30;2.90;;;1.75;;
70216;SDS011;65567;55.684;37.570;2023-12-28T01:23:56;3.08;;;1.58;;
70216;SDS011;65567;55.684;37.570;2023-12-28T01:26:22;3.20;;;1.75;;
70216;SDS011;65567;55.684;37.570;2023-12-28T01:28:48;3.38;;;1.80;;
70216;SDS011;65567;55.684;37.570;2023-12-28T01:31:13;3.80;;;2.00;;
70216;SDS011;65567;55.684;37.570;2023-12-28T01:33:42;4.13;;;1.92;;
70216;SDS011;65567;55.684;37.570;2023-12-28T01:36:17;3.13;;;1.60;;
70216;SDS011;65567;55.684;37.570;2023-12-28T01:38:43;3.28;;;1.60;;
70216;SDS011;65567;55.684;37.570;2023-12-28T01:41:09;4.25;;;1.95;;
70216;SDS011;65567;55.684;37.570;2023-12-28T01:43:35;2.63;;;1.63;;
70216;SDS011;65567;55.684;37.570;2023-12-28T01:46:01;4.82;;;1.70;;
70216;SDS011;65567;55.684;37.570;2023-12-28T01:48:27;2.70;;;1.83;;
70216;SDS011;65567;55.684;37.570;2023-12-28T01:50:54;3.95;;;1.60;;
70216;SDS011;65567;55.684;37.570;2023-12-28T01:53:23;2.88;;;1.60;;
70216;SDS011;65567;55.684;37.570;2023-12-28T01:55:49;4.03;;;2.20;;
70216;SDS011;65567;55.684;37.570;2023-12-28T01:58:15;3.30;;;1.70;;
70216;SDS011;65567;55.684;37.570;2023-12-28T02:00:41;4.10;;;2.13;;
70216;SDS011;65567;55.684;37.570;2023-12-28T02:03:07;3.78;;;2.00;;
70216;SDS011;65567;55.684;37.570;2023-12-28T02:05:34;3.20;;;1.55;;
70216;SDS011;65567;55.684;37.570;2023-12-28T02:08:00;4.63;;;1.60;;
70216;SDS011;65567;55.684;37.570;2023-12-28T02:10:27;3.50;;;1.75;;
70216;SDS011;65567;55.684;37.570;2023-12-28T02:12:53;3.72;;;1.98;;
70216;SDS011;65567;55.684;37.570;2023-12-28T02:15:20;3.85;;;2.50;;
70216;SDS011;65567;55.684;37.570;2023-12-28T02:20:15;3.22;;;1.85;;
70216;SDS011;65567;55.684;37.570;2023-12-28T02:22:41;4.03;;;2.03;;
70216;SDS011;65567;55.684;37.570;2023-12-28T02:25:08;4.47;;;2.15;;
70216;SDS011;65567;55.684;37.570;2023-12-28T02:27:41;4.07;;;2.25;;
70216;SDS011;65567;55.684;37.570;2023-12-28T02:30:09;4.63;;;2.33;;
70216;SDS011;65567;55.684;37.570;2023-12-28T02:33:22;4.03;;;2.10;;
70216;SDS011;65567;55.684;37.570;2023-12-28T02:38:10;3.40;;;1.70;;
70216;SDS011;65567;55.684;37.570;2023-12-28T02:40:39;4.47;;;1.83;;
70216;SDS011;65567;55.684;37.570;2023-12-28T02:43:07;3.53;;;2.03;;
70216;SDS011;65567;55.684;37.570;2023-12-28T02:45:34;4.45;;;2.25;;
70216;SDS011;65567;55.684;37.570;2023-12-28T02:48:01;3.80;;;1.85;;
70216;SDS011;65567;55.684;37.570;2023-12-28T02:50:27;4.60;;;2.33;;
70216;SDS011;65567;55.684;37.570;2023-12-28T02:52:55;3.58;;;1.95;;
70216;SDS011;65567;55.684;37.570;2023-12-28T02:55:21;3.67;;;2.40;;
70216;SDS011;65567;55.684;37.570;2023-12-28T02:57:47;2.83;;;1.77;;
70216;SDS011;65567;55.684;37.570;2023-12-28T03:00:14;3.38;;;2.10;;
70216;SDS011;65567;55.684;37.570;2023-12-28T03:02:40;3.95;;;2.20;;
70216;SDS011;65567;55.684;37.570;2023-12-28T03:05:09;3.97;;;2.10;;
70216;SDS011;65567;55.684;37.570;2023-12-28T03:07:35;4.18;;;1.98;;
70216;SDS011;65567;55.684;37.570;2023-12-28T03:10:02;3.10;;;2.10;;
70216;SDS011;65567;55.684;37.570;2023-12-28T03:12:29;3.92;;;2.08;;
70216;SDS011;65567;55.684;37.570;2023-12-28T03:14:55;3.95;;;2.00;;
70216;SDS011;65567;55.684;37.570;2023-12-28T03:17:21;3.78;;;2.20;;
70216;SDS011;65567;55.684;37.570;2023-12-28T03:19:48;3.25;;;1.77;;
70216;SDS011;65567;55.684;37.570;2023-12-28T03:22:13;6.47;;;2.47;;
70216;SDS011;65567;55.684;37.570;2023-12-28T03:24:40;4.45;;;1.98;;
70216;SDS011;65567;55.684;37.570;2023-12-28T03:27:06;3.95;;;1.90;;
70216;SDS011;65567;55.684;37.570;2023-12-28T03:29:32;3.03;;;1.90;;
70216;SDS011;65567;55.684;37.570;2023-12-28T03:31:59;4.13;;;1.80;;
70216;SDS011;65567;55.684;37.570;2023-12-28T03:34:25;3.67;;;2.30;;
70216;SDS011;65567;55.684;37.570;2023-12-28T03:36:55;3.50;;;1.88;;
70216;SDS011;65567;55.684;37.570;2023-12-28T03:39:22;3.00;;;1.98;;
70216;SDS011;65567;55.684;37.570;2023-12-28T03:41:48;4.88;;;2.40;;
70216;SDS011;65567;55.684;37.570;2023-12-28T03:44:14;4.45;;;2.30;;
70216;SDS011;65567;55.684;37.570;2023-12-28T03:46:40;5.80;;;2.13;;
70216;SDS011;65567;55.684;37.570;2023-12-28T03:49:06;3.38;;;2.00;;
70216;SDS011;65567;55.684;37.570;2023-12-28T03:51:31;3.60;;;2.20;;
70216;SDS011;65567;55.684;37.570;2023-12-28T03:53:57;4.65;;;2.90;;
70216;SDS011;65567;55.684;37.570;2023-12-28T03:56:27;3.60;;;2.15;;
70216;SDS011;65567;55.684;37.570;2023-12-28T03:58:53;4.40;;;2.47;;
70216;SDS011;65567;55.684;37.570;2023-12-28T04:01:20;3.88;;;2.22;;
70216;SDS011;65567;55.684;37.570;2023-12-28T04:03:47;3.65;;;2.08;;
70216;SDS011;65567;55.684;37.570;2023-12-28T04:06:14;3.85;;;2.10;;
70216;SDS011;65567;55.684;37.570;2023-12-28T04:08:43;4.85;;;2.05;;
70216;SDS011;65567;55.684;37.570;2023-12-28T04:11:09;4.13;;;2.35;;
70216;SDS011;65567;55.684;37.570;2023-12-28T04:13:35;4.53;;;2.30;;
70216;SDS011;65567;55.684;37.570;2023-12-28T04:16:02;3.65;;;2.50;;
70216;SDS011;65567;55.684;37.570;2023-12-28T04:18:28;3.53;;;2.00;;
70216;SDS011;65567;55.684;37.570;2023-12-28T04:20:55;3.92;;;2.03;;
70216;SDS011;65567;55.684;37.570;2023-12-28T04:23:26;3.20;;;1.90;;
70216;SDS011;65567;55.684;37.570;2023-12-28T04:25:55;3.67;;;2.00;;
70216;SDS011;65567;55.684;37.570;2023-12-28T04:28:24;3.15;;;2.10;;
70216;SDS011;65567;55.684;37.570;2023-12-28T04:30:50;3.42;;;2.35;;
70216;SDS011;65567;55.684;37.570;2023-12-28T04:33:16;3.03;;;2.10;;
70216;SDS011;65567;55.684;37.570;2023-12-28T04:35:44;3.67;;;1.77;;
70216;SDS011;65567;55.684;37.570;2023-12-28T04:38:10;3.13;;;1.75;;
70216;SDS011;65567;55.684;37.570;2023-12-28T04:40:36;3.13;;;1.95;;
70216;SDS011;65567;55.684;37.570;2023-12-28T04:43:02;3.47;;;2.03;;
70216;SDS011;65567;55.684;37.570;2023-12-28T04:45:28;2.90;;;1.63;;
70216;SDS011;65567;55.684;37.570;2023-12-28T04:47:54;3.83;;;2.17;;
70216;SDS011;65567;55.684;37.570;2023-12-28T04:50:20;3.22;;;1.63;;
70216;SDS011;65567;55.684;37.570;2023-12-28T04:52:46;3.50;;;2.00;;
70216;SDS011;65567;55.684;37.570;2023-12-28T04:55:13;4.32;;;2.40;;
70216;SDS011;65567;55.684;37.570;2023-12-28T04:57:40;3.55;;;1.73;;
70216;SDS011;65567;55.684;37.570;2023-12-28T05:00:06;3.08;;;1.65;;
70216;SDS011;65567;55.684;37.570;2023-12-28T05:02:33;3.30;;;1.83;;
70216;SDS011;65567;55.684;37.570;2023-12-28T05:04:59;4.82;;;1.80;;
70216;SDS011;65567;55.684;37.570;2023-12-28T05:07:25;3.30;;;1.80;;
70216;SDS011;65567;55.684;37.570;2023-12-28T05:09:52;3.00;;;1.80;;
70216;SDS011;65567;55.684;37.570;2023-12-28T05:12:18;2.88;;;1.60;;
70216;SDS011;65567;55.684;37.570;2023-12-28T05:14:45;4.10;;;1.88;;
70216;SDS011;65567;55.684;37.570;2023-12-28T05:17:10;4.20;;;2.13;;
70216;SDS011;65567;55.684;37.570;2023-12-28T05:19:36;3.67;;;2.17;;
70216;SDS011;65567;55.684;37.570;2023-12-28T05:22:02;3.42;;;2.05;;
70216;SDS011;65567;55.684;37.570;2023-12-28T05:24:31;3.45;;;2.40;;
70216;SDS011;65567;55.684;37.570;2023-12-28T05:26:58;3.72;;;2.35;;
70216;SDS011;65567;55.684;37.570;2023-12-28T05:29:24;3.75;;;2.10;;
70216;SDS011;65567;55.684;37.570;2023-12-28T05:31:55;4.55;;;2.25;;
70216;SDS011;65567;55.684;37.570;2023-12-28T05:34:21;3.45;;;2.13;;
70216;SDS011;65567;55.684;37.570;2023-12-28T05:36:47;3.53;;;2.15;;
70216;SDS011;65567;55.684;37.570;2023-12-28T05:39:13;4.38;;;2.50;;
70216;SDS011;65567;55.684;37.570;2023-12-28T05:41:39;4.18;;;2.58;;
70216;SDS011;65567;55.684;37.570;2023-12-28T05:44:05;3.17;;;1.95;;
70216;SDS011;65567;55.684;37.570;2023-12-28T05:46:31;4.80;;;2.10;;
70216;SDS011;65567;55.684;37.570;2023-12-28T05:48:57;4.47;;;2.10;;
70216;SDS011;65567;55.684;37.570;2023-12-28T05:51:23;3.22;;;1.83;;
70216;SDS011;65567;55.684;37.570;2023-12-28T05:53:49;3.50;;;1.92;;
70216;SDS011;65567;55.684;37.570;2023-12-28T05:56:16;3.90;;;1.92;;
70216;SDS011;65567;55.684;37.570;2023-12-28T05:58:42;4.70;;;2.00;;
70216;SDS011;65567;55.684;37.570;2023-12-28T06:01:08;3.53;;;2.00;;
70216;SDS011;65567;55.684;37.570;2023-12-28T06:03:33;4.00;;;1.90;;
70216;SDS011;65567;55.684;37.570;2023-12-28T06:06:02;4.68;;;2.25;;
70216;SDS011;65567;55.684;37.570;2023-12-28T06:08:28;4.50;;;2.22;;
70216;SDS011;65567;55.684;37.570;2023-12-28T06:10:53;3.88;;;2.20;;
70216;SDS011;65567;55.684;37.570;2023-12-28T06:13:19;3.13;;;1.55;;
70216;SDS011;65567;55.684;37.570;2023-12-28T06:15:45;4.05;;;2.08;;
70216;SDS011;65567;55.684;37.570;2023-12-28T06:18:13;3.38;;;2.15;;
70216;SDS011;65567;55.684;37.570;2023-12-28T06:20:39;3.70;;;1.90;;
70216;SDS011;65567;55.684;37.570;2023-12-28T06:23:06;3.80;;;1.95;;
70216;SDS011;65567;55.684;37.570;2023-12-28T06:25:33;3.45;;;1.90;;
70216;SDS011;65567;55.684;37.570;2023-12-28T06:27:58;3.58;;;2.00;;
70216;SDS011;65567;55.684;37.570;2023-12-28T06:30:24;3.83;;;2.00;;
70216;SDS011;65567;55.684;37.570;2023-12-28T06:32:50;4.72;;;2.50;;
70216;SDS011;65567;55.684;37.570;2023-12-28T06:35:15;4.25;;;2.40;;
70216;SDS011;65567;55.684;37.570;2023-12-28T06:37:42;4.38;;;2.17;;
70216;SDS011;65567;55.684;37.570;2023-12-28T06:40:08;3.70;;;2.22;;
70216;SDS011;65567;55.684;37.570;2023-12-28T06:42:34;3.97;;;2.20;;
70216;SDS011;65567;55.684;37.570;2023-12-28T06:45:00;4.53;;;2.42;;
70216;SDS011;65567;55.684;37.570;2023-12-28T06:47:25;6.10;;;2.50;;
70216;SDS011;65567;55.684;37.570;2023-12-28T06:49:51;4.32;;;2.42;;
70216;SDS011;65567;55.684;37.570;2023-12-28T06:52:17;4.55;;;2.17;;
70216;SDS011;65567;55.684;37.570;2023-12-28T06:54:43;3.80;;;2.40;;
70216;SDS011;65567;55.684;37.570;2023-12-28T06:57:09;3.30;;;2.08;;
70216;SDS011;65567;55.684;37.570;2023-12-28T06:59:34;3.72;;;2.10;;
70216;SDS011;65567;55.684;37.570;2023-12-28T07:02:00;6.75;;;2.80;;
70216;SDS011;65567;55.684;37.570;2023-12-28T07:04:26;3.90;;;2.40;;
70216;SDS011;65567;55.684;37.570;2023-12-28T07:06:54;5.38;;;1.92;;
70216;SDS011;65567;55.684;37.570;2023-12-28T07:09:20;5.43;;;2.35;;
70216;SDS011;65567;55.684;37.570;2023-12-28T07:11:46;4.75;;;2.45;;
70216;SDS011;65567;55.684;37.570;2023-12-28T07:14:11;4.63;;;2.20;;
70216;SDS011;65567;55.684;37.570;2023-12-28T07:16:40;5.25;;;2.53;;
70216;SDS011;65567;55.684;37.570;2023-12-28T07:19:05;4.65;;;2.25;;
70216;SDS011;65567;55.684;37.570;2023-12-28T07:21:32;3.78;;;2.33;;
70216;SDS011;65567;55.684;37.570;2023-12-28T07:24:00;3.63;;;1.85;;
70216;SDS011;65567;55.684;37.570;2023-12-28T07:26:26;4.68;;;2.80;;
70216;SDS011;65567;55.684;37.570;2023-12-28T07:28:52;4.50;;;2.25;;
70216;SDS011;65567;55.684;37.570;2023-12-28T07:31:24;4.07;;;2.10;;
70216;SDS011;65567;55.684;37.570;2023-12-28T07:33:50;4.82;;;2.15;;
70216;SDS011;65567;55.684;37.570;2023-12-28T07:36:16;4.22;;;2.40;;
70216;SDS011;65567;55.684;37.570;2023-12-28T07:38:42;3.83;;;2.30;;
70216;SDS011;65567;55.684;37.570;2023-12-28T07:41:11;4.07;;;1.83;;
70216;SDS011;65567;55.684;37.570;2023-12-28T07:43:37;5.70;;;2.50;;
70216;SDS011;65567;55.684;37.570;2023-12-28T07:46:03;3.33;;;1.98;;
70216;SDS011;65567;55.684;37.570;2023-12-28T07:48:29;3.00;;;1.67;;
70216;SDS011;65567;55.684;37.570;2023-12-28T07:50:58;3.88;;;2.38;;
70216;SDS011;65567;55.684;37.570;2023-12-28T07:53:29;3.78;;;2.30;;
70216;SDS011;65567;55.684;37.570;2023-12-28T07:55:55;3.50;;;1.85;;
70216;SDS011;65567;55.684;37.570;2023-12-28T07:58:21;4.78;;;1.95;;
70216;SDS011;65567;55.684;37.570;2023-12-28T08:00:47;3.70;;;2.17;;
70216;SDS011;65567;55.684;37.570;2023-12-28T08:03:12;2.78;;;1.75;;
70216;SDS011;65567;55.684;37.570;2023-12-28T08:05:40;4.45;;;2.40;;
70216;SDS011;65567;55.684;37.570;2023-12-28T08:08:07;3.55;;;1.88;;
70216;SDS011;65567;55.684;37.570;2023-12-28T08:10:32;3.35;;;2.00;;
70216;SDS011;65567;55.684;37.570;2023-12-28T08:13:01;3.45;;;1.92;;
70216;SDS011;65567;55.684;37.570;2023-12-28T08:15:27;4.50;;;2.15;;
70216;SDS011;65567;55.684;37.570;2023-12-28T08:17:52;3.33;;;1.70;;
70216;SDS011;65567;55.684;37.570;2023-12-28T08:20:18;2.88;;;2.03;;
70216;SDS011;65567;55.684;37.570;2023-12-28T08:22:46;2.92;;;1.50;;
70216;SDS011;65567;55.684;37.570;2023-12-28T08:25:12;4.40;;;2.33;;
70216;SDS011;65567;55.684;37.570;2023-12-28T08:27:38;3.60;;;2.22;;
70216;SDS011;65567;55.684;37.570;2023-12-28T08:30:04;3.83;;;2.30;;
70216;SDS011;65567;55.684;37.570;2023-12-28T08:32:34;4.60;;;2.45;;
70216;SDS011;65567;55.684;37.570;2023-12-28T08:35:00;3.33;;;2.28;;
70216;SDS011;65567;55.684;37.570;2023-12-28T08:37:27;6.68;;;2.45;;
70216;SDS011;65567;55.684;37.570;2023-12-28T08:39:53;5.20;;;2.28;;
70216;SDS011;65567;55.684;37.570;2023-12-28T08:42:20;5.03;;;2.65;;
70216;SDS011;65567;55.684;37.570;2023-12-28T08:44:46;4.43;;;2.35;;
70216;SDS011;65567;55.684;37.570;2023-12-28T08:47:12;4.55;;;2.17;;
70216;SDS011;65567;55.684;37.570;2023-12-28T08:49:38;5.75;;;2.83;;
70216;SDS011;65567;55.684;37.570;2023-12-28T08:52:06;5.88;;;2.53;;
70216;SDS011;65567;55.684;37.570;2023-12-28T08:54:31;3.92;;;2.10;;
70216;SDS011;65567;55.684;37.570;2023-12-28T08:56:57;4.03;;;2.40;;
70216;SDS011;65567;55.684;37.570;2023-12-28T08:59:23;4.28;;;2.20;;
70216;SDS011;65567;55.684;37.570;2023-12-28T09:01:49;4.13;;;2.75;;
70216;SDS011;65567;55.684;37.570;2023-12-28T09:04:17;4.47;;;2.42;;
70216;SDS011;65567;55.684;37.570;2023-12-28T09:06:43;7.13;;;3.05;;
70216;SDS011;65567;55.684;37.570;2023-12-28T09:09:09;5.00;;;2.95;;
70216;SDS011;65567;55.684;37.570;2023-12-28T09:11:35;6.15;;;3.00;;
70216;SDS011;65567;55.684;37.570;2023-12-28T09:14:00;6.53;;;3.50;;
70216;SDS011;65567;55.684;37.570;2023-12-28T09:16:30;4.70;;;3.20;;
70216;SDS011;65567;55.684;37.570;2023-12-28T09:18:55;6.28;;;3.75;;
70216;SDS011;65567;55.684;37.570;2023-12-28T09:21:22;6.38;;;3.80;;
70216;SDS011;65567;55.684;37.570;2023-12-28T09:23:47;6.35;;;3.50;;
70216;SDS011;65567;55.684;37.570;2023-12-28T09:26:13;7.75;;;3.63;;
70216;SDS011;65567;55.684;37.570;2023-12-28T09:28:39;6.78;;;3.65;;
70216;SDS011;65567;55.684;37.570;2023-12-28T09:31:05;6.65;;;4.40;;
70216;SDS011;65567;55.684;37.570;2023-12-28T09:33:32;6.13;;;3.67;;
70216;SDS011;65567;55.684;37.570;2023-12-28T09:35:58;5.07;;;3.03;;
70216;SDS011;65567;55.684;37.570;2023-12-28T09:38:25;5.30;;;3.03;;
70216;SDS011;65567;55.684;37.570;2023-12-28T09:40:56;4.28;;;2.80;;
70216;SDS011;65567;55.684;37.570;2023-12-28T09:45:51;4.82;;;2.80;;
70216;SDS011;65567;55.684;37.570;2023-12-28T09:48:17;4.28;;;2.90;;
70216;SDS011;65567;55.684;37.570;2023-12-28T09:50:53;5.72;;;2.97;;
70216;SDS011;65567;55.684;37.570;2023-12-28T09:53:26;4.20;;;2.90;;
70216;SDS011;65567;55.684;37.570;2023-12-28T09:55:52;5.45;;;2.80;;
70216;SDS011;65567;55.684;37.570;2023-12-28T09:58:24;6.03;;;2.55;;
70216;SDS011;65567;55.684;37.570;2023-12-28T10:00:50;6.55;;;2.60;;
70216;SDS011;65567;55.684;37.570;2023-12-28T10:03:17;4.38;;;2.90;;
70216;SDS011;65567;55.684;37.570;2023-12-28T10:05:43;3.85;;;2.45;;
70216;SDS011;65567;55.684;37.570;2023-12-28T10:08:18;4.15;;;2.63;;
70216;SDS011;65567;55.684;37.570;2023-12-28T10:10:56;4.10;;;2.13;;
70216;SDS011;65567;55.684;37.570;2023-12-28T10:13:24;3.50;;;2.10;;
70216;SDS011;65567;55.684;37.570;2023-12-28T10:15:50;4.43;;;2.50;;
70216;SDS011;65567;55.684;37.570;2023-12-28T10:18:18;3.10;;;1.85;;
70216;SDS011;65567;55.684;37.570;2023-12-28T10:20:51;3.40;;;2.20;;
70216;SDS011;65567;55.684;37.570;2023-12-28T10:23:21;3.22;;;1.90;;
70216;SDS011;65567;55.684;37.570;2023-12-28T10:25:50;3.50;;;2.25;;
70216;SDS011;65567;55.684;37.570;2023-12-28T10:28:18;3.38;;;2.33;;
70216;SDS011;65567;55.684;37.570;2023-12-28T10:30:45;3.13;;;2.03;;
70216;SDS011;65567;55.684;37.570;2023-12-28T10:33:11;6.72;;;3.63;;
70216;SDS011;65567;55.684;37.570;2023-12-28T10:35:39;4.57;;;2.30;;
70216;SDS011;65567;55.684;37.570;2023-12-28T10:38:05;5.18;;;2.70;;
70216;SDS011;65567;55.684;37.570;2023-12-28T10:40:38;4.43;;;2.42;;
70216;SDS011;65567;55.684;37.570;2023-12-28T10:43:06;3.33;;;2.05;;
70216;SDS011;65567;55.684;37.570;2023-12-28T10:45:33;3.92;;;2.53;;
70216;SDS011;65567;55.684;37.570;2023-12-28T10:50:42;3.10;;;2.22;;
70216;SDS011;65567;55.684;37.570;2023-12-28T10:53:24;4.43;;;1.98;;
70216;SDS011;65567;55.684;37.570;2023-12-28T11:01:22;4.35;;;2.50;;
70216;SDS011;65567;55.684;37.570;2023-12-28T11:03:52;4.03;;;2.50;;
70216;SDS011;65567;55.684;37.570;2023-12-28T11:06:29;4.07;;;2.25;;
70216;SDS011;65567;55.684;37.570;2023-12-28T11:08:56;4.53;;;2.90;;
70216;SDS011;65567;55.684;37.570;2023-12-28T11:11:24;4.63;;;2.78;;
70216;SDS011;65567;55.684;37.570;2023-12-28T11:13:52;3.58;;;2.35;;
70216;SDS011;65567;55.684;37.570;2023-12-28T11:16:21;4.10;;;2.70;;
70216;SDS011;65567;55.684;37.570;2023-12-28T11:18:48;3.80;;;2.00;;
70216;SDS011;65567;55.684;37.570;2023-12-28T11:21:15;3.65;;;2.58;;
70216;SDS011;65567;55.684;37.570;2023-12-28T11:23:43;4.43;;;2.58;;
70216;SDS011;65567;55.684;37.570;2023-12-28T11:26:16;5.82;;;2.50;;
70216;SDS011;65567;55.684;37.570;2023-12-28T11:28:45;5.63;;;2.55;;
70216;SDS011;65567;55.684;37.570;2023-12-28T11:31:14;4.97;;;2.78;;
70216;SDS011;65567;55.684;37.570;2023-12-28T11:33:44;5.03;;;2.60;;
70216;SDS011;65567;55.684;37.570;2023-12-28T11:36:12;5.68;;;2.95;;
70216;SDS011;65567;55.684;37.570;2023-12-28T11:39:01;4.53;;;2.38;;
70216;SDS011;65567;55.684;37.570;2023-12-28T11:41:32;4.82;;;2.67;;
70216;SDS011;65567;55.684;37.570;2023-12-28T11:44:05;4.97;;;2.50;;
70216;SDS011;65567;55.684;37.570;2023-12-28T11:46:31;4.40;;;2.35;;
70216;SDS011;65567;55.684;37.570;2023-12-28T11:49:08;4.30;;;2.70;;
70216;SDS011;65567;55.684;37.570;2023-12-28T11:51:38;3.15;;;2.08;;
70216;SDS011;65567;55.684;37.570;2023-12-28T11:56:30;4.68;;;2.00;;
70216;SDS011;65567;55.684;37.570;2023-12-28T11:58:58;3.33;;;2.25;;
70216;SDS011;65567;55.684;37.570;2023-12-28T12:01:24;4.38;;;2.42;;
70216;SDS011;65567;55.684;37.570;2023-12-28T12:03:49;4.07;;;2.38;;
70216;SDS011;65567;55.684;37.570;2023-12-28T12:06:15;3.80;;;2.28;;
70216;SDS011;65567;55.684;37.570;2023-12-28T12:08:44;3.00;;;1.90;;
70216;SDS011;65567;55.684;37.570;2023-12-28T12:11:12;4.20;;;2.33;;
70216;SDS011;65567;55.684;37.570;2023-12-28T12:13:38;2.83;;;1.52;;
70216;SDS011;65567;55.684;37.570;2023-12-28T12:16:03;2.17;;;1.50;;
70216;SDS011;65567;55.684;37.570;2023-12-28T12:18:30;4.20;;;1.73;;
70216;SDS011;65567;55.684;37.570;2023-12-28T12:20:59;3.67;;;1.90;;
70216;SDS011;65567;55.684;37.570;2023-12-28T12:23:25;2.97;;;1.63;;
70216;SDS011;65567;55.684;37.570;2023-12-28T12:25:51;3.35;;;1.88;;
70216;SDS011;65567;55.684;37.570;2023-12-28T12:28:17;2.80;;;1.80;;
70216;SDS011;65567;55.684;37.570;2023-12-28T12:30:55;2.95;;;1.70;;
70216;SDS011;65567;55.684;37.570;2023-12-28T12:33:21;3.15;;;1.90;;
70216;SDS011;65567;55.684;37.570;2023-12-28T12:35:48;2.92;;;1.73;;
70216;SDS011;65567;55.684;37.570;2023-12-28T12:38:15;2.17;;;1.40;;
70216;SDS011;65567;55.684;37.570;2023-12-28T12:40:42;3.70;;;2.00;;
70216;SDS011;65567;55.684;37.570;2023-12-28T12:43:08;3.28;;;1.83;;
70216;SDS011;65567;55.684;37.570;2023-12-28T12:45:36;2.72;;;1.55;;
70216;SDS011;65567;55.684;37.570;2023-12-28T12:48:02;2.90;;;1.40;;
70216;SDS011;65567;55.684;37.570;2023-12-28T12:50:30;3.15;;;1.40;;
70216;SDS011;65567;55.684;37.570;2023-12-28T12:52:58;5.07;;;1.60;;
70216;SDS011;65567;55.684;37.570;2023-12-28T12:55:25;3.40;;;1.83;;
70216;SDS011;65567;55.684;37.570;2023-12-28T12:57:51;3.08;;;2.25;;
70216;SDS011;65567;55.684;37.570;2023-12-28T13:00:21;2.63;;;1.58;;
70216;SDS011;65567;55.684;37.570;2023-12-28T13:02:48;3.30;;;1.80;;
70216;SDS011;65567;55.684;37.570;2023-12-28T13:05:21;3.85;;;2.17;;
70216;SDS011;65567;55.684;37.570;2023-12-28T13:07:49;3.78;;;2.10;;
70216;SDS011;65567;55.684;37.570;2023-12-28T13:10:14;2.67;;;1.60;;
70216;SDS011;65567;55.684;37.570;2023-12-28T13:12:40;2.92;;;1.95;;
70216;SDS011;65567;55.684;37.570;2023-12-28T13:15:06;3.30;;;1.90;;
70216;SDS011;65567;55.684;37.570;2023-12-28T13:17:34;3.38;;;1.67;;
70216;SDS011;65567;55.684;37.570;2023-12-28T13:20:00;2.55;;;1.67;;
70216;SDS011;65567;55.684;37.570;2023-12-28T13:22:26;3.13;;;1.70;;
70216;SDS011;65567;55.684;37.570;2023-12-28T13:24:52;3.55;;;2.20;;
70216;SDS011;65567;55.684;37.570;2023-12-28T13:27:17;3.38;;;1.73;;
70216;SDS011;65567;55.684;37.570;2023-12-28T13:29:43;3.38;;;1.70;;
70216;SDS011;65567;55.684;37.570;2023-12-28T13:32:09;2.97;;;1.80;;
70216;SDS011;65567;55.684;37.570;2023-12-28T13:34:41;5.03;;;1.70;;
70216;SDS011;65567;55.684;37.570;2023-12-28T13:37:09;2.33;;;1.25;;
70216;SDS011;65567;55.684;37.570;2023-12-28T13:39:35;3.35;;;1.85;;
70216;SDS011;65567;55.684;37.570;2023-12-28T13:42:05;3.53;;;1.60;;
70216;SDS011;65567;55.684;37.570;2023-12-28T13:44:42;3.63;;;2.03;;
70216;SDS011;65567;55.684;37.570;2023-12-28T13:47:09;4.60;;;2.25;;
70216;SDS011;65567;55.684;37.570;2023-12-28T13:49:35;3.83;;;2.38;;
70216;SDS011;65567;55.684;37.570;2023-12-28T13:52:03;3.88;;;1.92;;
70216;SDS011;65567;55.684;37.570;2023-12-28T13:54:29;4.38;;;2.40;;
70216;SDS011;65567;55.684;37.570;2023-12-28T13:56:57;2.95;;;1.88;;
70216;SDS011;65567;55.684;37.570;2023-12-28T13:59:26;4.80;;;2.45;;
70216;SDS011;65567;55.684;37.570;2023-12-28T14:01:52;4.30;;;2.40;;
70216;SDS011;65567;55.684;37.570;2023-12-28T14:04:17;5.50;;;2.38;;
70216;SDS011;65567;55.684;37.570;2023-12-28T14:06:43;4.25;;;2.05;;
70216;SDS011;65567;55.684;37.570;2023-12-28T14:09:09;3.55;;;1.75;;
70216;SDS011;65567;55.684;37.570;2023-12-28T14:11:34;3.55;;;2.03;;
70216;SDS011;65567;55.684;37.570;2023-12-28T14:14:00;3.78;;;2.00;;
70216;SDS011;65567;55.684;37.570;2023-12-28T14:16:26;3.95;;;2.35;;
70216;SDS011;65567;55.684;37.570;2023-12-28T14:18:54;4.75;;;2.70;;
70216;SDS011;65567;55.684;37.570;2023-12-28T14:21:19;3.85;;;2.55;;
70216;SDS011;65567;55.684;37.570;2023-12-28T14:23:45;4.30;;;2.25;;
70216;SDS011;65567;55.684;37.570;2023-12-28T14:26:12;3.53;;;2.03;;
70216;SDS011;65567;55.684;37.570;2023-12-28T14:28:42;5.45;;;2.25;;
70216;SDS011;65567;55.684;37.570;2023-12-28T14:31:09;5.10;;;2.55;;
70216;SDS011;65567;55.684;37.570;2023-12-28T14:33:36;4.93;;;2.38;;
70216;SDS011;65567;55.684;37.570;2023-12-28T14:36:19;4.85;;;2.38;;
70216;SDS011;65567;55.684;37.570;2023-12-28T14:38:52;3.55;;;1.80;;
70216;SDS011;65567;55.684;37.570;2023-12-28T14:41:18;4.10;;;2.47;;
70216;SDS011;65567;55.684;37.570;2023-12-28T14:43:43;4.70;;;2.30;;
70216;SDS011;65567;55.684;37.570;2023-12-28T14:46:09;4.47;;;2.58;;
70216;SDS011;65567;55.684;37.570;2023-12-28T14:48:34;4.70;;;2.42;;
70216;SDS011;65567;55.684;37.570;2023-12-28T14:51:00;5.30;;;3.17;;